Date,TemperatureHighF,TemperatureAvgF,TemperatureLowF,DewpointHighF,DewpointAvgF,DewpointLowF,HumidityHigh,HumidityAvg,HumidityLow,PressureMaxIn,PressureMinIn,WindSpeedMaxMPH,WindSpeedAvgMPH,GustSpeedMaxMPH,PrecipitationSumIn
2013-5-2,76.7,68.8,58.0,16.1,11.3,4.1,14,9,3,30.25,30.09,0,0,0,0.00
2013-5-3,82.6,67.8,49.3,20.6,13.7,4.2,21,12,6,30.12,29.80,0,0,0,0.00
2013-5-4,84.8,69.5,51.8,22.3,17.9,13.3,24,14,5,29.84,29.69,0,0,0,0.00
2013-5-5,79.9,70.8,61.7,31.7,22.3,15.5,28,17,11,29.87,29.76,0,0,0,0.00
2013-5-6,76.7,66.4,58.5,41.1,36.2,25.5,39,33,27,29.92,29.84,0,0,0,0.00
2013-5-7,77.0,63.8,52.0,44.3,37.2,33.7,56,39,22,29.93,29.81,0,0,0,0.00
2013-5-8,72.0,61.5,45.5,38.4,34.1,30.7,64,39,22,29.99,29.88,0,0,0,0.00
2013-5-9,76.0,64.0,51.1,37.8,33.7,29.2,43,33,21,29.97,29.88,0,0,0,0.00
2013-5-10,82.4,68.6,50.9,41.7,34.4,28.3,54,31,15,30.07,29.91,0,0,0,0.00
2013-5-11,84.1,72.7,57.1,42.5,33.4,25.3,42,26,13,30.11,30.02,0,0,0,0.00
2013-5-12,89.6,75.7,58.9,37.1,29.5,24.0,32,20,11,30.15,29.95,0,0,0,0.00
2013-5-13,94.1,78.4,60.1,34.8,28.8,23.3,28,17,8,30.10,29.89,0,0,0,0.00
2013-5-14,93.2,78.2,63.0,37.3,31.3,26.7,32,19,12,29.99,29.82,0,0,0,0.00
2013-5-15,76.3,72.2,68.8,31.1,30.6,29.9,24,22,19,29.89,29.88,0,0,0,0.00
2013-5-16,89.5,83.4,69.1,27.5,23.5,17.4,16,11,7,29.86,29.76,0,0,0,0.00
2013-5-17,84.2,74.0,60.1,31.7,26.5,20.8,25,18,15,29.86,29.80,0,0,0,0.00
2013-5-18,84.6,73.0,57.2,39.8,31.9,26.2,34,23,15,29.91,29.79,0,0,0,0.00
2013-5-19,89.6,74.2,56.9,38.2,29.7,21.3,37,21,11,29.90,29.74,0,0,0,0.00
2013-5-20,82.3,71.2,55.6,32.9,24.3,16.1,32,19,8,29.93,29.82,0,0,0,0.00
2013-5-21,89.1,74.6,57.6,34.6,27.0,18.2,31,19,10,29.94,29.76,0,0,0,0.00
2013-5-22,90.0,76.9,57.6,31.2,24.5,18.7,23,15,10,29.81,29.68,0,0,0,0.00
2013-5-23,88.2,77.3,64.4,31.2,24.6,20.1,23,15,8,29.83,29.73,0,0,0,0.00
2013-5-24,88.2,74.4,57.2,33.3,24.3,15.9,27,17,7,29.94,29.83,0,0,0,0.00
2013-5-25,88.7,72.1,56.2,30.4,21.9,15.9,26,16,6,29.93,29.84,0,0,0,0.00
2013-5-26,87.3,73.1,56.2,28.5,20.7,14.0,25,14,7,29.94,29.85,0,0,0,0.00
2013-5-27,85.3,70.6,56.9,29.8,23.4,16.5,25,18,11,29.91,29.75,0,0,0,0.00
2013-5-28,87.8,73.1,56.3,35.5,29.7,23.1,31,21,15,29.78,29.62,0,0,0,0.00
2013-5-29,91.8,77.1,59.8,40.0,33.7,28.9,38,23,12,29.75,29.65,0,0,0,0.00
2013-5-30,91.8,78.5,61.7,44.7,37.9,29.1,31,24,17,29.85,29.73,0,0,0,0.00
2013-5-31,95.2,81.9,64.4,47.5,41.8,34.7,41,26,13,29.91,29.78,0,0,0,0.00